createdAt,value
2019-05-19T00:00:34.298Z,13.97
2019-05-19T00:03:00.621Z,14.73
2019-05-19T00:05:26.936Z,14.53
2019-05-19T00:07:53.262Z,15.37
2019-05-19T00:10:19.596Z,14.93
2019-05-19T00:12:46.003Z,14.57
2019-05-19T00:15:12.463Z,15.20
2019-05-19T00:17:38.738Z,15.33
2019-05-19T00:20:05.779Z,15.47
2019-05-19T00:22:32.090Z,17.60
2019-05-19T00:24:58.212Z,15.87
2019-05-19T00:27:24.451Z,15.63
2019-05-19T00:29:50.752Z,17.27
2019-05-19T00:32:17.107Z,15.87
2019-05-19T00:34:43.337Z,14.90
2019-05-19T00:37:09.452Z,15.77
2019-05-19T00:39:35.597Z,15.30
2019-05-19T00:42:01.809Z,15.23
2019-05-19T00:44:27.910Z,14.70
2019-05-19T00:46:54.214Z,16.13
2019-05-19T00:49:20.636Z,16.00
2019-05-19T00:51:46.955Z,15.20
2019-05-19T00:54:14.320Z,16.37
2019-05-19T00:56:41.327Z,16.33
2019-05-19T00:59:08.256Z,15.23
2019-05-19T01:01:34.564Z,14.23
2019-05-19T01:04:00.753Z,15.53
2019-05-19T01:06:26.871Z,15.53
2019-05-19T01:08:53.178Z,16.30
2019-05-19T01:11:19.317Z,15.87
2019-05-19T01:13:45.519Z,18.40
2019-05-19T01:16:11.751Z,17.07
2019-05-19T01:18:37.982Z,16.27
2019-05-19T01:21:04.382Z,16.43
2019-05-19T01:23:30.603Z,16.97
2019-05-19T01:25:56.846Z,17.10
2019-05-19T01:28:23.061Z,17.77
2019-05-19T01:30:49.163Z,16.47
2019-05-19T01:33:15.534Z,15.93
2019-05-19T01:35:41.678Z,16.90
2019-05-19T01:38:07.797Z,18.03
2019-05-19T01:40:34.013Z,19.50
2019-05-19T01:43:00.259Z,18.60
2019-05-19T01:45:26.609Z,19.23
2019-05-19T01:47:52.857Z,18.97
2019-05-19T01:50:19.185Z,19.33
2019-05-19T01:52:45.471Z,18.47
2019-05-19T01:55:12.109Z,18.07
2019-05-19T01:57:38.252Z,18.10
2019-05-19T02:00:06.087Z,18.97
2019-05-19T02:02:32.421Z,20.63
2019-05-19T02:04:58.638Z,19.43
2019-05-19T02:07:24.793Z,18.10
2019-05-19T02:09:51.101Z,17.10
2019-05-19T02:12:17.337Z,18.00
2019-05-19T02:14:43.574Z,18.70
2019-05-19T02:17:09.808Z,18.67
2019-05-19T02:19:35.943Z,18.70
2019-05-19T02:22:02.164Z,23.00
2019-05-19T02:24:28.554Z,20.87
2019-05-19T02:26:54.773Z,19.80
2019-05-19T02:29:21.123Z,20.80
2019-05-19T02:31:47.332Z,24.40
2019-05-19T02:34:13.566Z,22.13
2019-05-19T02:36:39.884Z,23.37
2019-05-19T02:39:06.107Z,20.03
2019-05-19T02:41:32.630Z,19.70
2019-05-19T02:44:00.811Z,18.83
2019-05-19T02:46:28.533Z,18.47
2019-05-19T02:48:56.575Z,17.73
2019-05-19T02:51:25.070Z,20.03
2019-05-19T02:53:52.147Z,20.67
2019-05-19T02:56:19.533Z,18.23
2019-05-19T02:58:45.988Z,18.00
2019-05-19T03:01:13.303Z,17.90
2019-05-19T03:03:39.507Z,18.33
2019-05-19T03:06:05.688Z,18.47
2019-05-19T03:08:31.812Z,19.30
2019-05-19T03:10:57.950Z,19.33
2019-05-19T03:13:24.209Z,23.83
2019-05-19T03:15:50.484Z,20.47
2019-05-19T03:18:16.667Z,19.87
2019-05-19T03:20:42.971Z,19.87
2019-05-19T03:23:09.308Z,20.23
2019-05-19T03:25:35.538Z,19.90
2019-05-19T03:28:01.901Z,20.00
2019-05-19T03:30:36.538Z,19.83
2019-05-19T03:33:10.919Z,19.70
2019-05-19T03:35:38.269Z,20.13
2019-05-19T03:38:04.577Z,20.47
2019-05-19T03:40:30.804Z,23.30
2019-05-19T03:42:57.054Z,24.40
2019-05-19T03:45:23.397Z,25.43
2019-05-19T03:47:49.720Z,25.73
2019-05-19T03:50:15.984Z,24.23
2019-05-19T03:52:42.328Z,25.47
2019-05-19T03:55:08.665Z,24.00
2019-05-19T03:57:36.003Z,23.90
2019-05-19T04:00:04.239Z,23.00
2019-05-19T04:02:30.444Z,19.67
2019-05-19T04:04:56.698Z,21.17
2019-05-19T04:07:22.829Z,21.93
2019-05-19T04:09:49.055Z,23.77
2019-05-19T04:12:15.295Z,22.57
2019-05-19T04:14:41.453Z,21.20
2019-05-19T04:17:07.728Z,21.47
2019-05-19T04:19:33.860Z,19.77
2019-05-19T04:21:59.982Z,21.37
2019-05-19T04:24:26.219Z,19.80
2019-05-19T04:26:54.348Z,19.17
2019-05-19T04:29:20.617Z,20.50
2019-05-19T04:31:46.820Z,20.97
2019-05-19T04:34:13.038Z,20.70
2019-05-19T04:36:39.791Z,20.37
2019-05-19T04:39:06.138Z,22.27
2019-05-19T04:41:32.401Z,20.83
2019-05-19T04:43:59.639Z,20.73
2019-05-19T04:46:25.754Z,20.43
2019-05-19T04:48:52.083Z,22.57
2019-05-19T04:51:18.241Z,22.97
2019-05-19T04:53:44.455Z,20.90
2019-05-19T04:56:10.609Z,20.53
2019-05-19T04:58:36.737Z,23.07
2019-05-19T05:01:02.846Z,20.50
2019-05-19T05:03:28.985Z,22.53
2019-05-19T05:05:55.195Z,20.00
2019-05-19T05:08:29.885Z,19.40
2019-05-19T05:10:49.446Z,19.87
2019-05-19T05:13:15.660Z,19.30
2019-05-19T05:15:41.901Z,20.57
2019-05-19T05:18:08.103Z,20.30
2019-05-19T05:20:34.398Z,20.03
2019-05-19T05:23:00.699Z,19.90
2019-05-19T05:25:26.952Z,20.63
2019-05-19T05:27:53.296Z,19.60
2019-05-19T05:30:19.620Z,19.57
2019-05-19T05:32:45.848Z,19.33
2019-05-19T05:35:12.156Z,19.10
2019-05-19T05:37:38.415Z,19.63
2019-05-19T05:40:05.767Z,19.07
2019-05-19T05:42:32.187Z,19.77
2019-05-19T05:44:58.453Z,19.00
2019-05-19T05:47:24.568Z,19.53
2019-05-19T05:49:50.771Z,19.83
2019-05-19T05:52:16.920Z,20.40
2019-05-19T05:54:43.120Z,20.70
2019-05-19T05:57:09.298Z,20.23
2019-05-19T05:59:35.556Z,21.17
2019-05-19T06:02:01.619Z,20.50
2019-05-19T06:04:27.810Z,20.57
2019-05-19T06:06:53.932Z,20.73
2019-05-19T06:09:20.212Z,20.00
2019-05-19T06:11:46.360Z,20.67
2019-05-19T06:14:12.600Z,18.53
2019-05-19T06:16:38.795Z,20.13
2019-05-19T06:19:05.025Z,20.77
2019-05-19T06:21:31.130Z,19.90
2019-05-19T06:23:57.260Z,18.83
2019-05-19T06:26:23.505Z,19.80
2019-05-19T06:28:49.959Z,19.07
2019-05-19T06:31:16.191Z,19.20
2019-05-19T06:33:42.513Z,23.30
2019-05-19T06:36:08.760Z,17.23
2019-05-19T06:38:35.328Z,17.50
2019-05-19T06:41:01.720Z,18.10
2019-05-19T06:43:27.859Z,17.00
2019-05-19T06:45:54.214Z,17.93
2019-05-19T06:48:20.467Z,18.87
2019-05-19T06:50:46.822Z,17.30
2019-05-19T06:53:14.623Z,19.70
2019-05-19T06:55:41.385Z,19.23
2019-05-19T06:58:07.724Z,18.13
2019-05-19T07:00:33.942Z,15.97
2019-05-19T07:03:00.092Z,17.57
2019-05-19T07:05:26.532Z,18.03
2019-05-19T07:07:52.816Z,16.70
2019-05-19T07:10:19.125Z,17.37
2019-05-19T07:12:45.362Z,17.17
2019-05-19T07:15:11.912Z,17.43
2019-05-19T07:17:38.154Z,16.50
2019-05-19T07:20:04.749Z,15.63
2019-05-19T07:22:31.104Z,16.00
2019-05-19T07:24:57.220Z,15.17
2019-05-19T07:27:23.317Z,15.60
2019-05-19T07:29:49.551Z,13.90
2019-05-19T07:32:15.676Z,14.63
2019-05-19T07:34:41.890Z,15.48
2019-05-19T07:37:08.108Z,14.73
2019-05-19T07:39:34.672Z,16.70
2019-05-19T07:42:01.032Z,16.85
2019-05-19T07:44:27.255Z,15.63
2019-05-19T07:46:53.503Z,14.95
2019-05-19T07:49:19.851Z,15.43
2019-05-19T07:51:46.256Z,16.63
2019-05-19T07:54:12.465Z,16.57
2019-05-19T07:56:38.727Z,16.00
2019-05-19T07:59:07.767Z,15.63
2019-05-19T08:01:33.941Z,14.03
2019-05-19T08:04:00.273Z,14.10
2019-05-19T08:06:26.470Z,14.95
2019-05-19T08:08:52.699Z,14.23
2019-05-19T08:11:18.809Z,15.15
2019-05-19T08:13:45.143Z,18.75
2019-05-19T08:16:11.356Z,18.73
2019-05-19T08:18:37.684Z,16.70
2019-05-19T08:21:03.994Z,14.68
2019-05-19T08:23:30.206Z,14.60
2019-05-19T08:25:56.368Z,13.72
2019-05-19T08:28:22.490Z,14.93
2019-05-19T08:30:48.870Z,15.63
2019-05-19T08:33:15.144Z,13.28
2019-05-19T08:35:41.378Z,13.20
2019-05-19T08:38:07.756Z,13.43
2019-05-19T08:40:34.067Z,11.25
2019-05-19T08:43:00.183Z,12.33
2019-05-19T08:45:26.253Z,13.68
2019-05-19T08:47:52.669Z,15.30
2019-05-19T08:50:19.070Z,13.90
2019-05-19T08:52:45.271Z,12.10
2019-05-19T08:55:11.677Z,12.30
2019-05-19T08:57:37.797Z,11.45
2019-05-19T09:00:06.421Z,9.95
2019-05-19T09:02:33.361Z,9.43
2019-05-19T09:04:59.645Z,8.75
2019-05-19T09:07:26.017Z,8.85
2019-05-19T09:09:52.204Z,8.88
2019-05-19T09:12:18.469Z,8.90
2019-05-19T09:14:45.119Z,8.30
2019-05-19T09:17:11.525Z,9.00
2019-05-19T09:19:37.935Z,9.75
2019-05-19T09:22:04.172Z,9.50
2019-05-19T09:24:31.182Z,8.60
2019-05-19T09:26:58.441Z,8.10
2019-05-19T09:29:24.571Z,8.95
2019-05-19T09:31:50.917Z,8.45
2019-05-19T09:34:17.040Z,8.43
2019-05-19T09:36:43.174Z,8.25
2019-05-19T09:39:09.405Z,7.90
2019-05-19T09:41:35.725Z,8.95
2019-05-19T09:44:02.404Z,8.03
2019-05-19T09:46:28.511Z,8.43
2019-05-19T09:49:13.369Z,8.20
2019-05-19T09:51:39.603Z,8.13
2019-05-19T09:54:05.813Z,8.53
2019-05-19T09:56:32.270Z,8.60
2019-05-19T09:58:58.810Z,8.93
2019-05-19T10:01:25.198Z,7.60
2019-05-19T10:03:51.393Z,8.40
2019-05-19T10:06:17.658Z,8.35
2019-05-19T10:08:47.792Z,8.65
2019-05-19T10:11:54.975Z,8.78
2019-05-19T10:14:21.328Z,8.50
2019-05-19T10:16:47.478Z,8.63
2019-05-19T10:19:13.732Z,9.60
2019-05-19T10:21:40.136Z,7.95
2019-05-19T10:24:06.460Z,8.33
2019-05-19T10:26:32.728Z,8.28
2019-05-19T10:28:59.065Z,7.65
2019-05-19T10:31:25.532Z,8.10
2019-05-19T10:33:52.468Z,8.35
2019-05-19T10:36:18.755Z,8.13
2019-05-19T10:38:45.092Z,7.28
2019-05-19T10:41:11.234Z,8.00
2019-05-19T10:43:37.531Z,7.00
2019-05-19T10:46:03.764Z,7.40
2019-05-19T10:48:30.081Z,7.90
2019-05-19T10:50:56.523Z,7.42
2019-05-19T10:53:22.762Z,7.17
2019-05-19T10:55:48.996Z,7.10
2019-05-19T10:58:15.171Z,7.50
2019-05-19T11:00:41.519Z,6.70
2019-05-19T11:03:07.930Z,6.47
2019-05-19T11:05:34.468Z,5.85
2019-05-19T11:08:00.877Z,6.20
2019-05-19T11:10:28.089Z,6.72
2019-05-19T11:12:54.379Z,7.45
2019-05-19T11:15:20.716Z,7.62
2019-05-19T11:17:46.964Z,7.47
2019-05-19T11:20:13.405Z,7.08
2019-05-19T11:22:39.691Z,6.53
2019-05-19T11:25:06.149Z,6.65
2019-05-19T11:27:32.410Z,6.90
2019-05-19T11:29:58.541Z,7.03
2019-05-19T11:32:24.906Z,6.65
2019-05-19T11:34:51.236Z,7.67
2019-05-19T11:37:17.467Z,6.87
2019-05-19T11:39:43.807Z,6.90
2019-05-19T11:42:10.150Z,7.55
2019-05-19T11:44:43.361Z,7.17
2019-05-19T11:47:09.505Z,6.40
2019-05-19T11:49:35.837Z,6.67
2019-05-19T11:52:01.958Z,6.45
2019-05-19T11:54:28.174Z,7.30
2019-05-19T11:56:54.387Z,6.25
2019-05-19T11:59:20.513Z,6.33
2019-05-19T12:01:46.967Z,6.53
2019-05-19T12:04:13.199Z,5.83
2019-05-19T12:06:40.181Z,5.55
2019-05-19T12:09:06.670Z,5.80
2019-05-19T12:11:33.028Z,5.67
2019-05-19T12:13:59.235Z,5.67
2019-05-19T12:16:25.596Z,5.35
2019-05-19T12:18:51.962Z,4.50
2019-05-19T12:21:18.103Z,4.60
2019-05-19T12:23:44.253Z,4.90
2019-05-19T12:26:22.857Z,4.60
2019-05-19T12:28:38.633Z,4.40
2019-05-19T12:31:06.048Z,4.87
2019-05-19T12:33:32.322Z,4.78
2019-05-19T12:35:58.577Z,5.40
2019-05-19T12:38:24.797Z,5.33
2019-05-19T12:40:51.057Z,5.35
2019-05-19T12:43:18.508Z,5.45
2019-05-19T12:45:44.870Z,5.00
2019-05-19T12:48:11.069Z,5.50
2019-05-19T12:50:37.457Z,6.72
2019-05-19T12:53:03.810Z,6.87
2019-05-19T12:55:30.147Z,6.90
2019-05-19T12:57:56.424Z,7.33
2019-05-19T13:00:22.725Z,7.00
2019-05-19T13:02:49.097Z,7.35
2019-05-19T13:05:15.411Z,7.25
2019-05-19T13:07:41.804Z,7.45
2019-05-19T13:10:08.171Z,7.22
2019-05-19T13:12:34.639Z,7.10
2019-05-19T13:15:00.885Z,7.55
2019-05-19T13:17:27.142Z,7.22
2019-05-19T13:19:53.479Z,7.30
2019-05-19T13:22:19.771Z,7.47
2019-05-19T13:24:45.921Z,7.40
2019-05-19T13:27:12.272Z,8.23
2019-05-19T13:29:38.642Z,7.47
2019-05-19T13:32:05.016Z,7.72
2019-05-19T13:34:31.271Z,7.85
2019-05-19T13:36:57.505Z,7.33
2019-05-19T13:39:23.770Z,7.03
2019-05-19T13:41:50.133Z,7.45
2019-05-19T13:44:16.459Z,7.87
2019-05-19T13:46:42.766Z,7.20
2019-05-19T13:49:09.037Z,8.33
2019-05-19T13:51:35.279Z,7.53
2019-05-19T13:54:01.617Z,6.70
2019-05-19T13:56:28.160Z,7.72
2019-05-19T13:58:54.467Z,7.92
2019-05-19T14:01:28.523Z,8.10
2019-05-19T14:03:52.026Z,8.70
2019-05-19T14:06:17.719Z,8.28
2019-05-19T14:08:44.871Z,8.60
2019-05-19T14:11:11.095Z,7.90
2019-05-19T14:13:37.202Z,6.50
2019-05-19T14:16:03.494Z,5.83
2019-05-19T14:18:29.877Z,6.17
2019-05-19T14:20:56.107Z,6.00
2019-05-19T14:23:22.481Z,6.40
2019-05-19T14:25:48.583Z,6.25
2019-05-19T14:28:14.935Z,5.60
2019-05-19T14:30:41.381Z,6.17
2019-05-19T14:33:07.716Z,6.37
2019-05-19T14:35:33.866Z,5.80
2019-05-19T14:38:00.076Z,6.50
2019-05-19T14:40:26.388Z,6.05
2019-05-19T14:43:00.275Z,6.12
2019-05-19T14:45:26.558Z,6.47
2019-05-19T14:47:52.980Z,6.80
2019-05-19T14:50:19.680Z,6.53
2019-05-19T14:52:46.420Z,7.15
2019-05-19T14:55:12.958Z,7.17
2019-05-19T14:57:44.872Z,6.45
2019-05-19T15:00:08.678Z,6.60
2019-05-19T15:02:34.878Z,7.20
2019-05-19T15:05:01.288Z,6.70
2019-05-19T15:07:27.566Z,7.13
2019-05-19T15:09:54.273Z,6.20
2019-05-19T15:12:20.461Z,7.27
2019-05-19T15:14:46.901Z,7.10
2019-05-19T15:17:13.102Z,6.87
2019-05-19T15:19:40.342Z,7.35
2019-05-19T15:22:06.619Z,7.10
2019-05-19T15:24:32.869Z,6.40
2019-05-19T15:26:59.056Z,6.83
2019-05-19T15:29:25.438Z,6.43
2019-05-19T15:31:51.553Z,6.40
2019-05-19T15:34:17.901Z,6.60
2019-05-19T15:36:44.246Z,5.95
2019-05-19T15:39:10.716Z,6.45
2019-05-19T15:41:36.992Z,6.25
2019-05-19T15:44:03.460Z,5.83
2019-05-19T15:46:30.054Z,5.97
2019-05-19T15:48:56.182Z,5.53
2019-05-19T15:51:28.430Z,5.70
2019-05-19T15:53:50.702Z,5.80
2019-05-19T15:56:17.156Z,5.33
2019-05-19T15:58:43.365Z,5.87
2019-05-19T16:01:09.603Z,5.45
2019-05-19T16:03:35.804Z,6.55
2019-05-19T16:06:02.163Z,5.90
2019-05-19T16:08:28.528Z,4.72
2019-05-19T16:10:54.754Z,6.47
2019-05-19T16:13:22.110Z,6.30
2019-05-19T16:15:48.646Z,5.50
2019-05-19T16:18:15.010Z,5.50
2019-05-19T16:20:41.174Z,5.55
2019-05-19T16:23:07.479Z,6.30
2019-05-19T16:25:33.812Z,5.40
2019-05-19T16:28:00.032Z,5.33
2019-05-19T16:30:26.253Z,5.62
2019-05-19T16:32:52.582Z,5.40
2019-05-19T16:35:20.041Z,5.40
2019-05-19T16:37:46.207Z,5.42
2019-05-19T16:40:12.901Z,5.50
2019-05-19T16:42:39.514Z,5.85
2019-05-19T16:45:07.645Z,5.92
2019-05-19T16:47:34.829Z,6.25
2019-05-19T16:50:01.163Z,6.50
2019-05-19T16:52:27.410Z,6.90
2019-05-19T16:55:12.201Z,6.65
2019-05-19T16:57:38.657Z,6.25
2019-05-19T17:00:05.409Z,5.35
2019-05-19T17:02:33.108Z,5.53
2019-05-19T17:04:59.269Z,5.90
2019-05-19T17:07:25.483Z,5.17
2019-05-19T17:09:51.715Z,5.47
2019-05-19T17:12:18.260Z,5.53
2019-05-19T17:14:44.788Z,5.22
2019-05-19T17:17:10.910Z,5.62
2019-05-19T17:19:37.162Z,5.80
2019-05-19T17:22:03.270Z,5.30
2019-05-19T17:24:29.704Z,5.90
2019-05-19T17:26:55.919Z,5.72
2019-05-19T17:29:22.126Z,5.17
2019-05-19T17:31:48.223Z,5.55
2019-05-19T17:34:14.429Z,5.30
2019-05-19T17:36:40.670Z,5.45
2019-05-19T17:39:07.239Z,5.20
2019-05-19T17:41:33.511Z,5.28
2019-05-19T17:43:59.642Z,5.60
2019-05-19T17:46:26.095Z,5.25
2019-05-19T17:48:52.333Z,5.08
2019-05-19T17:51:18.753Z,5.20
2019-05-19T17:53:45.020Z,5.17
2019-05-19T17:56:12.314Z,5.30
2019-05-19T17:58:38.834Z,4.92
2019-05-19T18:01:05.159Z,5.22
2019-05-19T18:03:32.421Z,5.10
2019-05-19T18:05:58.552Z,4.87
2019-05-19T18:08:24.855Z,5.58
2019-05-19T18:10:51.211Z,5.40
2019-05-19T18:13:17.466Z,5.50
2019-05-19T18:15:43.837Z,5.37
2019-05-19T18:18:10.248Z,5.22
2019-05-19T18:20:36.539Z,6.20
2019-05-19T18:23:02.958Z,6.10
2019-05-19T18:25:29.315Z,6.37
2019-05-19T18:27:55.521Z,5.30
2019-05-19T18:30:21.935Z,5.35
2019-05-19T18:32:48.212Z,5.40
2019-05-19T18:35:14.780Z,5.87
2019-05-19T18:37:41.019Z,5.60
2019-05-19T18:40:07.838Z,5.80
2019-05-19T18:42:34.021Z,5.97
2019-05-19T18:45:00.401Z,6.08
2019-05-19T18:47:26.711Z,5.87
2019-05-19T18:49:52.947Z,5.75
2019-05-19T18:52:19.358Z,5.80
2019-05-19T18:54:45.588Z,5.60
2019-05-19T18:57:11.950Z,5.70
2019-05-19T18:59:46.895Z,5.87
2019-05-19T19:02:06.826Z,6.12
2019-05-19T19:04:33.222Z,6.37
2019-05-19T19:06:59.569Z,6.50
2019-05-19T19:09:26.991Z,6.80
2019-05-19T19:11:53.340Z,6.53
2019-05-19T19:14:19.566Z,6.75
2019-05-19T19:16:45.679Z,6.67
2019-05-19T19:19:12.003Z,7.20
2019-05-19T19:21:38.248Z,8.38
2019-05-19T19:24:04.517Z,7.40
2019-05-19T19:26:31.061Z,7.87
2019-05-19T19:28:57.288Z,7.55
2019-05-19T19:31:23.535Z,7.50
2019-05-19T19:33:49.917Z,7.63
2019-05-19T19:36:16.094Z,8.50
2019-05-19T19:38:42.568Z,8.10
2019-05-19T19:41:09.009Z,7.43
2019-05-19T19:43:35.366Z,7.87
2019-05-19T19:46:01.671Z,7.97
2019-05-19T19:48:28.068Z,7.60
2019-05-19T19:50:54.396Z,8.37
2019-05-19T19:53:20.776Z,7.55
2019-05-19T19:55:47.337Z,7.43
2019-05-19T19:58:13.663Z,8.10
2019-05-19T20:00:42.558Z,8.18
2019-05-19T20:03:08.879Z,8.88
2019-05-19T20:05:37.272Z,8.00
2019-05-19T20:08:04.747Z,7.80
2019-05-19T20:10:31.008Z,8.33
2019-05-19T20:12:57.237Z,8.43
2019-05-19T20:15:23.554Z,8.10
2019-05-19T20:17:49.955Z,8.90
2019-05-19T20:20:16.303Z,9.27
2019-05-19T20:22:42.695Z,9.50
2019-05-19T20:25:09.087Z,10.47
2019-05-19T20:27:35.337Z,10.23
2019-05-19T20:30:02.077Z,10.60
2019-05-19T20:32:28.487Z,10.23
2019-05-19T20:34:54.696Z,9.77
2019-05-19T20:37:21.042Z,10.27
2019-05-19T20:39:47.444Z,10.40
2019-05-19T20:42:13.702Z,10.73
2019-05-19T20:44:39.958Z,10.63
2019-05-19T20:47:06.314Z,11.10
2019-05-19T20:49:32.674Z,10.90
2019-05-19T20:51:58.795Z,10.77
2019-05-19T20:54:25.060Z,11.00
2019-05-19T20:56:51.164Z,10.57
2019-05-19T20:59:17.518Z,10.80
2019-05-19T21:01:45.080Z,10.70
2019-05-19T21:04:11.582Z,10.37
2019-05-19T21:06:38.036Z,10.37
2019-05-19T21:09:04.674Z,10.30
2019-05-19T21:11:32.159Z,11.00
2019-05-19T21:13:58.566Z,11.20
2019-05-19T21:16:24.824Z,11.30
2019-05-19T21:19:08.119Z,11.57
2019-05-19T21:21:34.389Z,11.87
2019-05-19T21:24:00.627Z,11.27
2019-05-19T21:26:26.785Z,11.17
2019-05-19T21:28:52.870Z,11.23
2019-05-19T21:31:19.325Z,11.40
2019-05-19T21:33:45.456Z,11.20
2019-05-19T21:36:11.726Z,11.83
2019-05-19T21:38:38.078Z,12.10
2019-05-19T21:41:04.313Z,12.10
2019-05-19T21:43:30.419Z,11.87
2019-05-19T21:45:56.622Z,12.80
2019-05-19T21:48:33.070Z,13.40
2019-05-19T21:50:59.499Z,11.90
2019-05-19T21:53:25.733Z,12.60
2019-05-19T21:55:51.877Z,13.53
2019-05-19T21:58:18.115Z,13.57
2019-05-19T22:00:44.773Z,13.17
2019-05-19T22:03:11.213Z,13.33
2019-05-19T22:05:51.213Z,13.13
2019-05-19T22:08:10.434Z,13.13
2019-05-19T22:10:36.764Z,13.00
2019-05-19T22:13:03.062Z,13.07
2019-05-19T22:15:29.277Z,13.90
2019-05-19T22:17:56.633Z,12.50
2019-05-19T22:20:22.934Z,13.23
2019-05-19T22:22:49.291Z,12.23
2019-05-19T22:25:15.660Z,13.23
2019-05-19T22:27:42.006Z,13.30
2019-05-19T22:30:08.505Z,14.10
2019-05-19T22:32:34.831Z,13.70
2019-05-19T22:35:01.054Z,14.30
2019-05-19T22:37:27.275Z,13.93
2019-05-19T22:39:53.521Z,14.93
2019-05-19T22:42:19.640Z,15.00
2019-05-19T22:44:45.800Z,14.40
2019-05-19T22:47:11.932Z,15.10
2019-05-19T22:49:38.158Z,14.90
2019-05-19T22:52:04.389Z,15.90
2019-05-19T22:54:30.739Z,16.40
2019-05-19T22:56:56.934Z,15.67
2019-05-19T22:59:23.153Z,15.23
2019-05-19T23:01:51.743Z,15.00
2019-05-19T23:04:17.710Z,14.67
2019-05-19T23:06:43.919Z,15.57
2019-05-19T23:09:10.282Z,17.10
2019-05-19T23:11:36.620Z,16.77
2019-05-19T23:14:03.058Z,16.10
2019-05-19T23:16:29.213Z,16.63
2019-05-19T23:18:55.411Z,16.30
2019-05-19T23:21:21.558Z,17.77
2019-05-19T23:23:47.703Z,17.73
2019-05-19T23:26:13.927Z,16.93
2019-05-19T23:28:40.066Z,15.20
2019-05-19T23:31:06.160Z,16.03
2019-05-19T23:33:32.366Z,16.97
2019-05-19T23:35:58.507Z,17.03
2019-05-19T23:38:24.748Z,16.20
2019-05-19T23:40:51.079Z,16.40
2019-05-19T23:43:17.258Z,18.70
2019-05-19T23:45:43.693Z,18.37
2019-05-19T23:48:10.098Z,19.73
2019-05-19T23:50:36.329Z,20.27
2019-05-19T23:53:02.608Z,21.00
2019-05-19T23:55:28.728Z,21.43
2019-05-19T23:57:55.067Z,22.90
